createdAt,value
2017-09-03T12:12:59.903Z,3.40
2017-09-03T12:21:33.173Z,2.67
2017-09-03T12:29:10.998Z,4.53
2017-09-03T12:31:37.380Z,3.30
2017-09-03T12:34:03.799Z,5.03
2017-09-03T12:36:30.218Z,5.20
2017-09-03T12:38:56.765Z,4.47
2017-09-03T12:41:23.215Z,3.80
2017-09-03T12:43:49.662Z,3.93
2017-09-03T12:46:15.970Z,3.63
2017-09-03T12:48:42.362Z,4.37
2017-09-03T12:57:19.620Z,4.10
2017-09-03T12:59:46.080Z,3.70
2017-09-03T13:02:12.577Z,4.47
2017-09-03T13:04:39.349Z,4.90
2017-09-03T13:07:05.795Z,4.47
2017-09-03T13:09:34.547Z,4.20
2017-09-03T13:12:00.961Z,3.70
2017-09-03T13:14:27.373Z,3.90
2017-09-03T13:16:53.787Z,3.63
2017-09-03T13:19:20.212Z,3.07
2017-09-03T13:21:47.116Z,3.30
2017-09-03T13:24:13.589Z,3.23
2017-09-03T13:26:40.129Z,3.17
2017-09-03T13:29:06.454Z,3.57
2017-09-03T13:31:32.768Z,3.17
2017-09-03T13:33:59.118Z,3.00
2017-09-03T13:36:25.413Z,2.87
2017-09-03T13:38:52.049Z,3.07
2017-09-03T13:41:18.404Z,2.87
2017-09-03T13:43:44.820Z,2.30
2017-09-03T13:46:11.156Z,2.30
2017-09-03T13:48:37.494Z,2.20
2017-09-03T13:51:03.824Z,2.57
2017-09-03T13:53:30.196Z,3.70
2017-09-03T13:55:56.778Z,2.47
2017-09-03T13:58:23.080Z,2.60
2017-09-03T14:00:49.494Z,2.63
2017-09-03T14:03:15.787Z,2.77
2017-09-03T14:05:42.142Z,2.33
2017-09-03T14:08:08.668Z,2.20
2017-09-03T14:10:35.031Z,2.70
2017-09-03T14:13:01.323Z,2.70
2017-09-03T14:15:28.632Z,3.27
2017-09-03T14:17:55.027Z,3.30
2017-09-03T14:20:21.570Z,3.60
2017-09-03T14:22:47.942Z,3.80
2017-09-03T14:25:14.239Z,3.10
2017-09-03T14:27:40.954Z,4.60
2017-09-03T14:30:07.331Z,3.77
2017-09-03T14:32:33.623Z,3.97
2017-09-03T14:35:00.222Z,4.43
2017-09-03T14:37:26.535Z,4.17
2017-09-03T14:39:52.918Z,4.10
2017-09-03T14:42:19.234Z,4.37
2017-09-03T14:44:45.534Z,4.10
2017-09-03T14:47:11.893Z,3.80
2017-09-03T14:49:38.236Z,3.90
2017-09-03T14:52:04.564Z,4.80
2017-09-03T14:54:38.192Z,4.60
2017-09-03T14:57:05.135Z,4.33
2017-09-03T14:59:31.686Z,3.97
2017-09-03T15:01:58.010Z,4.40
2017-09-03T15:04:24.503Z,4.40
2017-09-03T15:06:51.075Z,3.67
2017-09-03T15:09:17.587Z,4.30
2017-09-03T15:11:43.976Z,3.63
2017-09-03T15:14:10.331Z,3.73
2017-09-03T15:16:36.668Z,3.33
2017-09-03T15:19:03.197Z,2.53
2017-09-03T15:21:29.844Z,3.57
2017-09-03T15:23:56.175Z,3.20
2017-09-03T15:26:22.527Z,3.00
2017-09-03T15:28:48.843Z,3.13
2017-09-03T15:31:15.211Z,2.87
2017-09-03T15:33:41.498Z,2.90
2017-09-03T15:38:41.179Z,2.50
2017-09-03T15:41:07.590Z,2.70
2017-09-03T15:43:33.950Z,2.17
2017-09-03T15:46:00.289Z,2.23
2017-09-03T15:48:26.575Z,2.43
2017-09-03T15:50:52.939Z,2.60
2017-09-03T15:53:19.290Z,2.97
2017-09-03T15:55:45.725Z,2.90
2017-09-03T15:58:12.311Z,3.80
2017-09-03T16:00:38.705Z,3.10
2017-09-03T16:03:05.055Z,3.60
2017-09-03T16:05:31.419Z,2.90
2017-09-03T16:07:57.817Z,3.07
2017-09-03T16:10:24.366Z,4.13
2017-09-03T16:12:51.729Z,4.03
2017-09-03T16:15:18.211Z,3.63
2017-09-03T16:17:44.827Z,3.93
2017-09-03T16:20:11.269Z,4.40
2017-09-03T16:22:37.667Z,4.80
2017-09-03T16:25:04.229Z,3.50
2017-09-03T16:27:30.515Z,4.30
2017-09-03T16:29:56.963Z,4.23
2017-09-03T16:32:23.338Z,3.40
2017-09-03T16:34:49.671Z,3.50
2017-09-03T16:37:16.202Z,3.40
2017-09-03T16:39:42.519Z,4.17
2017-09-03T16:42:08.926Z,3.93
2017-09-03T16:44:36.354Z,3.20
2017-09-03T16:47:02.899Z,3.60
2017-09-03T16:49:29.408Z,3.83
2017-09-03T16:51:55.734Z,3.57
2017-09-03T16:54:22.091Z,3.03
2017-09-03T16:56:48.838Z,3.00
2017-09-03T16:59:15.179Z,3.27
2017-09-03T17:01:48.305Z,2.90
2017-09-03T17:04:21.036Z,3.00
2017-09-03T17:06:53.397Z,3.60
2017-09-03T17:09:19.939Z,3.00
2017-09-03T17:11:46.375Z,3.33
2017-09-03T17:14:18.335Z,3.40
2017-09-03T17:16:51.197Z,3.33
2017-09-03T17:19:22.665Z,2.90
2017-09-03T17:21:57.125Z,3.37
2017-09-03T17:24:24.119Z,3.60
2017-09-03T17:26:56.306Z,2.70
2017-09-03T17:29:22.906Z,3.70
2017-09-03T17:31:56.103Z,3.40
2017-09-03T17:34:22.499Z,3.70
2017-09-03T17:36:49.690Z,3.70
2017-09-03T17:39:16.051Z,3.80
2017-09-03T17:41:44.392Z,4.60
2017-09-03T17:44:11.741Z,4.10
2017-09-03T17:46:38.860Z,4.07
2017-09-03T17:49:11.241Z,3.40
2017-09-03T17:51:44.434Z,3.83
2017-09-03T17:54:16.609Z,3.60
2017-09-03T17:56:49.428Z,3.53
2017-09-03T17:59:22.616Z,3.93
2017-09-03T18:01:55.808Z,4.53
2017-09-03T18:04:28.231Z,4.07
2017-09-03T18:06:55.373Z,3.80
2017-09-03T18:09:25.786Z,3.77
2017-09-03T18:12:00.841Z,4.00
2017-09-03T18:14:29.515Z,3.70
2017-09-03T18:16:55.868Z,3.60
2017-09-03T18:19:22.250Z,4.23
2017-09-03T18:21:48.711Z,4.30
2017-09-03T18:24:16.422Z,4.60
2017-09-03T18:26:50.564Z,4.23
2017-09-03T18:29:22.254Z,5.00
2017-09-03T18:31:55.989Z,4.87
2017-09-03T18:34:26.802Z,5.30
2017-09-03T18:37:03.766Z,4.20
2017-09-03T18:39:36.270Z,5.10
2017-09-03T18:42:21.833Z,4.70
2017-09-03T18:44:48.490Z,4.70
2017-09-03T18:47:14.844Z,5.77
2017-09-03T18:49:46.352Z,5.10
2017-09-03T18:52:21.639Z,5.73
2017-09-03T18:54:53.909Z,5.80
2017-09-03T18:57:27.968Z,5.80
2017-09-03T19:00:00.618Z,6.07
2017-09-03T19:02:34.601Z,5.50
2017-09-03T19:05:07.720Z,5.83
2017-09-03T19:07:41.905Z,7.77
2017-09-03T19:10:14.450Z,6.27
2017-09-03T19:12:42.847Z,6.63
2017-09-03T19:15:14.752Z,6.50
2017-09-03T19:20:22.972Z,7.90
2017-09-03T19:22:49.872Z,7.37
2017-09-03T19:25:16.489Z,7.67
2017-09-03T19:27:42.841Z,7.37
2017-09-03T19:30:09.961Z,6.33
2017-09-03T19:32:36.430Z,7.60
2017-09-03T19:35:11.313Z,6.93
2017-09-03T19:40:17.841Z,7.63
2017-09-03T19:42:44.791Z,8.37
2017-09-03T19:45:16.026Z,9.33
2017-09-03T19:47:48.115Z,8.60
2017-09-03T19:50:19.539Z,8.00
2017-09-03T19:52:52.839Z,9.23
2017-09-03T19:55:25.478Z,7.57
2017-09-03T19:57:58.677Z,7.33
2017-09-03T20:00:30.742Z,6.90
2017-09-03T20:02:57.741Z,7.00
2017-09-03T20:05:24.202Z,7.50
2017-09-03T20:07:50.623Z,7.23
2017-09-03T20:10:17.458Z,6.40
2017-09-03T20:12:45.431Z,7.07
2017-09-03T20:15:17.376Z,6.70
2017-09-03T20:17:49.703Z,7.13
2017-09-03T20:20:21.534Z,6.80
2017-09-03T20:22:52.112Z,6.70
2017-09-03T20:25:19.297Z,7.70
2017-09-03T20:27:51.807Z,8.17
2017-09-03T20:30:25.388Z,7.50
2017-09-03T20:32:57.580Z,6.47
2017-09-03T20:35:26.345Z,7.60
2017-09-03T20:37:54.035Z,9.03
2017-09-03T20:40:24.169Z,9.20
2017-09-03T20:42:56.213Z,9.20
2017-09-03T20:45:29.017Z,9.27
2017-09-03T20:47:55.807Z,10.43
2017-09-03T20:50:22.131Z,9.70
2017-09-03T20:52:48.581Z,7.70
2017-09-03T20:55:15.184Z,6.87
2017-09-03T20:57:41.611Z,8.17
2017-09-03T21:00:07.972Z,7.63
2017-09-03T21:02:40.558Z,6.90
2017-09-03T21:05:13.359Z,6.40
2017-09-03T21:07:46.634Z,7.03
2017-09-03T21:10:19.100Z,9.40
2017-09-03T21:12:50.491Z,8.70
2017-09-03T21:15:22.516Z,8.60
2017-09-03T21:17:55.583Z,8.57
2017-09-03T21:20:29.071Z,7.73
2017-09-03T21:23:01.371Z,7.97
2017-09-03T21:25:34.190Z,7.50
2017-09-03T21:28:06.797Z,7.77
2017-09-03T21:30:38.508Z,9.70
2017-09-03T21:33:10.441Z,9.50
2017-09-03T21:35:43.190Z,9.37
2017-09-03T21:38:10.435Z,9.97
2017-09-03T21:40:36.881Z,8.57
2017-09-03T21:43:08.643Z,9.43
2017-09-03T21:45:40.801Z,9.80
2017-09-03T21:48:11.255Z,9.33
2017-09-03T21:50:43.448Z,10.77
2017-09-03T21:53:15.562Z,9.50
2017-09-03T21:55:43.102Z,13.10
2017-09-03T21:58:15.094Z,10.67
2017-09-03T22:00:47.332Z,11.60
2017-09-03T22:03:19.084Z,11.30
2017-09-03T22:05:51.747Z,12.20
2017-09-03T22:08:24.004Z,12.37
2017-09-03T22:10:57.696Z,13.70
2017-09-03T22:13:24.498Z,13.40
2017-09-03T22:15:52.007Z,13.40
2017-09-03T22:18:24.724Z,13.00
2017-09-03T22:20:51.532Z,12.53
2017-09-03T22:23:17.949Z,12.33
2017-09-03T22:25:44.324Z,12.87
2017-09-03T22:28:10.699Z,11.20
2017-09-03T22:30:37.081Z,11.60
2017-09-03T22:33:03.478Z,11.00
2017-09-03T22:35:29.774Z,11.53
2017-09-03T22:38:00.600Z,11.80
2017-09-03T22:40:27.022Z,12.87
2017-09-03T22:42:53.363Z,13.80
2017-09-03T22:45:19.811Z,11.70
2017-09-03T22:47:46.202Z,11.50
2017-09-03T22:50:12.547Z,10.67
2017-09-03T22:52:38.988Z,10.47
2017-09-03T22:55:05.435Z,11.10
2017-09-03T22:57:31.906Z,11.77
2017-09-03T22:59:58.243Z,11.83
2017-09-03T23:02:24.590Z,11.70
2017-09-03T23:04:53.012Z,11.80
2017-09-03T23:07:19.363Z,10.77
2017-09-03T23:09:45.806Z,10.70
2017-09-03T23:12:12.143Z,11.47
2017-09-03T23:14:38.511Z,11.20
2017-09-03T23:17:04.907Z,13.30
2017-09-03T23:19:31.246Z,14.73
2017-09-03T23:21:57.607Z,16.00
2017-09-03T23:24:24.039Z,16.23
2017-09-03T23:26:50.466Z,16.70
2017-09-03T23:29:16.934Z,14.90
2017-09-03T23:31:43.251Z,14.10
2017-09-03T23:34:09.738Z,13.70
2017-09-03T23:36:36.062Z,14.20
2017-09-03T23:39:02.509Z,14.90
2017-09-03T23:41:28.924Z,14.33
2017-09-03T23:43:55.342Z,16.97
2017-09-03T23:46:21.870Z,14.80
2017-09-03T23:48:48.223Z,15.00
2017-09-03T23:51:14.689Z,15.17
2017-09-03T23:53:41.014Z,12.30
2017-09-03T23:56:07.431Z,13.63
2017-09-03T23:58:33.816Z,14.20
